sensor_id;sensor_type;location;lat;lon;timestamp;P1;durP1;ratioP1;P2;durP2;ratioP2
65871;SDS011;52653;50.080;21.992;2024-03-02T00:00:38;47.10;;;30.60;;
65871;SDS011;52653;50.080;21.992;2024-03-02T00:03:30;42.70;;;29.10;;
65871;SDS011;52653;50.080;21.992;2024-03-02T00:06:03;45.20;;;30.20;;
65871;SDS011;52653;50.080;21.992;2024-03-02T00:08:37;45.70;;;31.70;;
65871;SDS011;52653;50.080;21.992;2024-03-02T00:11:09;46.50;;;30.10;;
65871;SDS011;52653;50.080;21.992;2024-03-02T00:13:43;43.90;;;29.30;;
65871;SDS011;52653;50.080;21.992;2024-03-02T00:16:17;46.20;;;30.30;;
65871;SDS011;52653;50.080;21.992;2024-03-02T00:18:49;43.30;;;30.50;;
65871;SDS011;52653;50.080;21.992;2024-03-02T00:21:24;42.00;;;29.90;;
65871;SDS011;52653;50.080;21.992;2024-03-02T00:24:00;44.20;;;30.60;;
65871;SDS011;52653;50.080;21.992;2024-03-02T00:26:37;48.00;;;31.40;;
65871;SDS011;52653;50.080;21.992;2024-03-02T00:29:09;47.60;;;32.20;;
65871;SDS011;52653;50.080;21.992;2024-03-02T00:31:44;47.30;;;31.50;;
65871;SDS011;52653;50.080;21.992;2024-03-02T00:34:17;47.50;;;31.30;;
65871;SDS011;52653;50.080;21.992;2024-03-02T00:36:53;44.70;;;31.60;;
65871;SDS011;52653;50.080;21.992;2024-03-02T00:39:32;45.80;;;31.30;;
65871;SDS011;52653;50.080;21.992;2024-03-02T00:42:05;46.60;;;30.40;;
65871;SDS011;52653;50.080;21.992;2024-03-02T00:44:37;45.00;;;30.00;;
65871;SDS011;52653;50.080;21.992;2024-03-02T00:47:10;48.90;;;31.50;;
65871;SDS011;52653;50.080;21.992;2024-03-02T00:49:42;46.90;;;31.80;;
65871;SDS011;52653;50.080;21.992;2024-03-02T00:52:17;47.70;;;31.10;;
65871;SDS011;52653;50.080;21.992;2024-03-02T00:54:49;45.00;;;30.40;;
65871;SDS011;52653;50.080;21.992;2024-03-02T00:57:22;43.40;;;30.60;;
65871;SDS011;52653;50.080;21.992;2024-03-02T00:59:56;44.90;;;30.90;;
65871;SDS011;52653;50.080;21.992;2024-03-02T01:02:32;47.00;;;31.70;;
65871;SDS011;52653;50.080;21.992;2024-03-02T01:05:05;46.90;;;31.10;;
65871;SDS011;52653;50.080;21.992;2024-03-02T01:07:40;49.30;;;32.50;;
65871;SDS011;52653;50.080;21.992;2024-03-02T01:10:13;50.80;;;33.40;;
65871;SDS011;52653;50.080;21.992;2024-03-02T01:12:46;48.60;;;33.20;;
65871;SDS011;52653;50.080;21.992;2024-03-02T01:15:18;50.10;;;31.50;;
65871;SDS011;52653;50.080;21.992;2024-03-02T01:17:51;49.80;;;33.10;;
65871;SDS011;52653;50.080;21.992;2024-03-02T01:20:24;50.10;;;33.50;;
65871;SDS011;52653;50.080;21.992;2024-03-02T01:22:56;51.00;;;32.30;;
65871;SDS011;52653;50.080;21.992;2024-03-02T01:25:29;49.20;;;32.10;;
65871;SDS011;52653;50.080;21.992;2024-03-02T01:28:01;50.10;;;32.80;;
65871;SDS011;52653;50.080;21.992;2024-03-02T01:30:34;51.50;;;33.70;;
65871;SDS011;52653;50.080;21.992;2024-03-02T01:33:09;48.10;;;31.40;;
65871;SDS011;52653;50.080;21.992;2024-03-02T01:35:41;48.00;;;31.00;;
65871;SDS011;52653;50.080;21.992;2024-03-02T01:38:15;48.20;;;31.50;;
65871;SDS011;52653;50.080;21.992;2024-03-02T01:40:47;51.30;;;32.70;;
65871;SDS011;52653;50.080;21.992;2024-03-02T01:43:19;48.60;;;32.20;;
65871;SDS011;52653;50.080;21.992;2024-03-02T01:45:52;48.20;;;31.70;;
65871;SDS011;52653;50.080;21.992;2024-03-02T01:48:24;48.90;;;32.00;;
65871;SDS011;52653;50.080;21.992;2024-03-02T01:50:56;45.90;;;30.60;;
65871;SDS011;52653;50.080;21.992;2024-03-02T01:53:29;49.10;;;31.20;;
65871;SDS011;52653;50.080;21.992;2024-03-02T01:56:01;47.70;;;30.90;;
65871;SDS011;52653;50.080;21.992;2024-03-02T01:58:35;50.00;;;32.10;;
65871;SDS011;52653;50.080;21.992;2024-03-02T02:01:07;46.80;;;31.70;;
65871;SDS011;52653;50.080;21.992;2024-03-02T02:03:40;49.20;;;32.30;;
65871;SDS011;52653;50.080;21.992;2024-03-02T02:06:13;50.70;;;32.60;;
65871;SDS011;52653;50.080;21.992;2024-03-02T02:08:46;51.10;;;32.90;;
65871;SDS011;52653;50.080;21.992;2024-03-02T02:11:18;53.20;;;33.50;;
65871;SDS011;52653;50.080;21.992;2024-03-02T02:13:51;49.60;;;32.40;;
65871;SDS011;52653;50.080;21.992;2024-03-02T02:16:24;50.30;;;32.10;;
65871;SDS011;52653;50.080;21.992;2024-03-02T02:18:57;47.50;;;31.20;;
65871;SDS011;52653;50.080;21.992;2024-03-02T02:21:29;48.30;;;30.80;;
65871;SDS011;52653;50.080;21.992;2024-03-02T02:24:02;48.90;;;31.60;;
65871;SDS011;52653;50.080;21.992;2024-03-02T02:26:34;47.10;;;30.70;;
65871;SDS011;52653;50.080;21.992;2024-03-02T02:29:07;46.70;;;30.40;;
65871;SDS011;52653;50.080;21.992;2024-03-02T02:31:40;49.20;;;31.80;;
65871;SDS011;52653;50.080;21.992;2024-03-02T02:34:13;48.40;;;31.30;;
65871;SDS011;52653;50.080;21.992;2024-03-02T02:36:46;49.40;;;31.60;;
65871;SDS011;52653;50.080;21.992;2024-03-02T02:39:20;51.10;;;31.90;;
65871;SDS011;52653;50.080;21.992;2024-03-02T02:41:53;51.30;;;32.30;;
65871;SDS011;52653;50.080;21.992;2024-03-02T02:44:25;53.10;;;33.00;;
65871;SDS011;52653;50.080;21.992;2024-03-02T02:46:57;49.50;;;32.00;;
65871;SDS011;52653;50.080;21.992;2024-03-02T02:49:30;54.10;;;33.40;;
65871;SDS011;52653;50.080;21.992;2024-03-02T02:52:03;50.30;;;32.40;;
65871;SDS011;52653;50.080;21.992;2024-03-02T02:54:36;53.90;;;32.90;;
65871;SDS011;52653;50.080;21.992;2024-03-02T02:57:09;52.70;;;32.80;;
65871;SDS011;52653;50.080;21.992;2024-03-02T02:59:42;55.50;;;33.70;;
65871;SDS011;52653;50.080;21.992;2024-03-02T03:02:14;53.00;;;33.70;;
65871;SDS011;52653;50.080;21.992;2024-03-02T03:04:46;57.30;;;34.10;;
65871;SDS011;52653;50.080;21.992;2024-03-02T03:07:18;56.80;;;35.50;;
65871;SDS011;52653;50.080;21.992;2024-03-02T03:09:51;52.50;;;33.30;;
65871;SDS011;52653;50.080;21.992;2024-03-02T03:12:23;51.60;;;33.20;;
65871;SDS011;52653;50.080;21.992;2024-03-02T03:14:56;54.40;;;33.20;;
65871;SDS011;52653;50.080;21.992;2024-03-02T03:17:32;53.00;;;33.30;;
65871;SDS011;52653;50.080;21.992;2024-03-02T03:20:05;54.90;;;33.00;;
65871;SDS011;52653;50.080;21.992;2024-03-02T03:22:40;54.70;;;34.90;;
65871;SDS011;52653;50.080;21.992;2024-03-02T03:25:13;54.60;;;33.40;;
65871;SDS011;52653;50.080;21.992;2024-03-02T03:27:45;52.10;;;31.80;;
65871;SDS011;52653;50.080;21.992;2024-03-02T03:30:17;51.90;;;31.10;;
65871;SDS011;52653;50.080;21.992;2024-03-02T03:32:50;51.80;;;32.50;;
65871;SDS011;52653;50.080;21.992;2024-03-02T03:35:22;54.80;;;33.20;;
65871;SDS011;52653;50.080;21.992;2024-03-02T03:37:54;55.00;;;33.10;;
65871;SDS011;52653;50.080;21.992;2024-03-02T03:40:27;56.50;;;34.10;;
65871;SDS011;52653;50.080;21.992;2024-03-02T03:43:00;55.40;;;34.00;;
65871;SDS011;52653;50.080;21.992;2024-03-02T03:45:32;56.10;;;33.10;;
65871;SDS011;52653;50.080;21.992;2024-03-02T03:48:05;57.20;;;34.40;;
65871;SDS011;52653;50.080;21.992;2024-03-02T03:50:38;55.90;;;32.20;;
65871;SDS011;52653;50.080;21.992;2024-03-02T03:53:11;51.90;;;31.50;;
65871;SDS011;52653;50.080;21.992;2024-03-02T03:55:43;54.70;;;33.40;;
65871;SDS011;52653;50.080;21.992;2024-03-02T03:58:18;54.40;;;34.10;;
65871;SDS011;52653;50.080;21.992;2024-03-02T04:00:51;52.20;;;32.40;;
65871;SDS011;52653;50.080;21.992;2024-03-02T04:03:23;60.00;;;35.40;;
65871;SDS011;52653;50.080;21.992;2024-03-02T04:05:56;54.60;;;32.70;;
65871;SDS011;52653;50.080;21.992;2024-03-02T04:08:28;53.80;;;32.10;;
65871;SDS011;52653;50.080;21.992;2024-03-02T04:11:00;59.40;;;33.60;;
65871;SDS011;52653;50.080;21.992;2024-03-02T04:13:33;55.40;;;34.10;;
65871;SDS011;52653;50.080;21.992;2024-03-02T04:16:06;58.00;;;33.60;;
65871;SDS011;52653;50.080;21.992;2024-03-02T04:18:41;57.10;;;33.60;;
65871;SDS011;52653;50.080;21.992;2024-03-02T04:21:13;61.20;;;34.10;;
65871;SDS011;52653;50.080;21.992;2024-03-02T04:23:45;57.50;;;32.40;;
65871;SDS011;52653;50.080;21.992;2024-03-02T04:26:18;56.80;;;33.80;;
65871;SDS011;52653;50.080;21.992;2024-03-02T04:28:54;56.00;;;32.60;;
65871;SDS011;52653;50.080;21.992;2024-03-02T04:31:26;54.10;;;32.40;;
65871;SDS011;52653;50.080;21.992;2024-03-02T04:34:02;57.10;;;33.50;;
65871;SDS011;52653;50.080;21.992;2024-03-02T04:36:36;59.20;;;32.40;;
65871;SDS011;52653;50.080;21.992;2024-03-02T04:39:09;58.60;;;34.20;;
65871;SDS011;52653;50.080;21.992;2024-03-02T04:41:41;55.40;;;31.50;;
65871;SDS011;52653;50.080;21.992;2024-03-02T04:44:13;55.80;;;32.70;;
65871;SDS011;52653;50.080;21.992;2024-03-02T04:46:48;55.90;;;31.70;;
65871;SDS011;52653;50.080;21.992;2024-03-02T04:49:20;53.90;;;31.60;;
65871;SDS011;52653;50.080;21.992;2024-03-02T04:51:52;58.60;;;33.40;;
65871;SDS011;52653;50.080;21.992;2024-03-02T04:54:25;60.00;;;34.90;;
65871;SDS011;52653;50.080;21.992;2024-03-02T04:56:57;56.10;;;31.50;;
65871;SDS011;52653;50.080;21.992;2024-03-02T04:59:29;57.40;;;32.80;;
65871;SDS011;52653;50.080;21.992;2024-03-02T05:02:01;58.10;;;32.60;;
65871;SDS011;52653;50.080;21.992;2024-03-02T05:04:34;54.50;;;33.00;;
65871;SDS011;52653;50.080;21.992;2024-03-02T05:07:06;61.00;;;33.50;;
65871;SDS011;52653;50.080;21.992;2024-03-02T05:09:39;58.30;;;33.20;;
65871;SDS011;52653;50.080;21.992;2024-03-02T05:12:11;57.00;;;32.40;;
65871;SDS011;52653;50.080;21.992;2024-03-02T05:15:04;54.20;;;31.00;;
65871;SDS011;52653;50.080;21.992;2024-03-02T05:17:39;57.60;;;33.10;;
65871;SDS011;52653;50.080;21.992;2024-03-02T05:20:12;57.60;;;32.30;;
65871;SDS011;52653;50.080;21.992;2024-03-02T05:22:46;58.80;;;32.40;;
65871;SDS011;52653;50.080;21.992;2024-03-02T05:25:19;59.00;;;32.80;;
65871;SDS011;52653;50.080;21.992;2024-03-02T05:27:51;58.00;;;34.30;;
65871;SDS011;52653;50.080;21.992;2024-03-02T05:30:23;57.00;;;32.80;;
65871;SDS011;52653;50.080;21.992;2024-03-02T05:32:56;57.80;;;32.90;;
65871;SDS011;52653;50.080;21.992;2024-03-02T05:35:28;61.00;;;32.70;;
65871;SDS011;52653;50.080;21.992;2024-03-02T05:38:02;54.50;;;32.80;;
65871;SDS011;52653;50.080;21.992;2024-03-02T05:40:34;57.20;;;32.90;;
65871;SDS011;52653;50.080;21.992;2024-03-02T05:43:06;55.80;;;33.70;;
65871;SDS011;52653;50.080;21.992;2024-03-02T05:45:39;60.60;;;31.80;;
65871;SDS011;52653;50.080;21.992;2024-03-02T05:48:11;54.80;;;32.10;;
65871;SDS011;52653;50.080;21.992;2024-03-02T05:50:43;58.00;;;32.40;;
65871;SDS011;52653;50.080;21.992;2024-03-02T05:53:16;54.90;;;33.10;;
65871;SDS011;52653;50.080;21.992;2024-03-02T05:55:48;57.30;;;33.00;;
65871;SDS011;52653;50.080;21.992;2024-03-02T05:58:22;57.60;;;33.20;;
65871;SDS011;52653;50.080;21.992;2024-03-02T06:01:06;58.90;;;34.20;;
65871;SDS011;52653;50.080;21.992;2024-03-02T06:03:39;58.10;;;32.10;;
65871;SDS011;52653;50.080;21.992;2024-03-02T06:06:11;54.90;;;33.00;;
65871;SDS011;52653;50.080;21.992;2024-03-02T06:08:43;55.60;;;31.00;;
65871;SDS011;52653;50.080;21.992;2024-03-02T06:11:15;55.90;;;32.40;;
65871;SDS011;52653;50.080;21.992;2024-03-02T06:13:49;53.00;;;31.20;;
65871;SDS011;52653;50.080;21.992;2024-03-02T06:16:22;53.80;;;32.60;;
65871;SDS011;52653;50.080;21.992;2024-03-02T06:18:54;54.20;;;32.70;;
65871;SDS011;52653;50.080;21.992;2024-03-02T06:21:27;57.40;;;33.30;;
65871;SDS011;52653;50.080;21.992;2024-03-02T06:23:59;55.10;;;32.30;;
65871;SDS011;52653;50.080;21.992;2024-03-02T06:26:32;52.50;;;30.80;;
65871;SDS011;52653;50.080;21.992;2024-03-02T06:29:04;56.50;;;31.90;;
65871;SDS011;52653;50.080;21.992;2024-03-02T06:31:37;53.30;;;31.40;;
65871;SDS011;52653;50.080;21.992;2024-03-02T06:34:09;53.20;;;31.60;;
65871;SDS011;52653;50.080;21.992;2024-03-02T06:36:42;53.70;;;31.90;;
65871;SDS011;52653;50.080;21.992;2024-03-02T06:39:14;54.50;;;31.20;;
65871;SDS011;52653;50.080;21.992;2024-03-02T06:41:47;53.60;;;32.60;;
65871;SDS011;52653;50.080;21.992;2024-03-02T06:44:19;53.30;;;32.30;;
65871;SDS011;52653;50.080;21.992;2024-03-02T06:46:51;55.00;;;32.20;;
65871;SDS011;52653;50.080;21.992;2024-03-02T06:49:27;51.60;;;31.60;;
65871;SDS011;52653;50.080;21.992;2024-03-02T06:52:02;54.60;;;31.70;;
65871;SDS011;52653;50.080;21.992;2024-03-02T06:54:46;53.90;;;32.00;;
65871;SDS011;52653;50.080;21.992;2024-03-02T06:57:18;51.60;;;30.90;;
65871;SDS011;52653;50.080;21.992;2024-03-02T06:59:51;54.50;;;33.00;;
65871;SDS011;52653;50.080;21.992;2024-03-02T07:02:28;55.40;;;32.10;;
65871;SDS011;52653;50.080;21.992;2024-03-02T07:05:14;53.50;;;32.20;;
65871;SDS011;52653;50.080;21.992;2024-03-02T07:07:55;54.70;;;31.20;;
65871;SDS011;52653;50.080;21.992;2024-03-02T07:10:37;56.70;;;32.50;;
65871;SDS011;52653;50.080;21.992;2024-03-02T07:13:13;53.20;;;32.40;;
65871;SDS011;52653;50.080;21.992;2024-03-02T07:15:54;52.80;;;31.70;;
65871;SDS011;52653;50.080;21.992;2024-03-02T07:19:04;52.00;;;32.00;;
65871;SDS011;52653;50.080;21.992;2024-03-02T07:21:37;54.50;;;31.80;;
65871;SDS011;52653;50.080;21.992;2024-03-02T07:24:09;54.80;;;33.30;;
65871;SDS011;52653;50.080;21.992;2024-03-02T07:26:44;54.80;;;32.30;;
65871;SDS011;52653;50.080;21.992;2024-03-02T07:29:19;49.30;;;30.70;;
65871;SDS011;52653;50.080;21.992;2024-03-02T07:31:51;52.70;;;32.20;;
65871;SDS011;52653;50.080;21.992;2024-03-02T07:34:24;47.60;;;31.20;;
65871;SDS011;52653;50.080;21.992;2024-03-02T07:36:56;51.10;;;31.20;;
65871;SDS011;52653;50.080;21.992;2024-03-02T07:39:28;50.80;;;30.60;;
65871;SDS011;52653;50.080;21.992;2024-03-02T07:42:01;51.00;;;30.70;;
65871;SDS011;52653;50.080;21.992;2024-03-02T07:44:33;48.70;;;29.30;;
65871;SDS011;52653;50.080;21.992;2024-03-02T07:47:08;52.70;;;32.30;;
65871;SDS011;52653;50.080;21.992;2024-03-02T07:49:40;50.50;;;30.50;;
65871;SDS011;52653;50.080;21.992;2024-03-02T07:52:14;51.30;;;31.00;;
65871;SDS011;52653;50.080;21.992;2024-03-02T07:54:47;51.70;;;31.60;;
65871;SDS011;52653;50.080;21.992;2024-03-02T07:57:20;50.70;;;31.60;;
65871;SDS011;52653;50.080;21.992;2024-03-02T07:59:52;50.10;;;31.90;;
65871;SDS011;52653;50.080;21.992;2024-03-02T08:02:25;54.80;;;33.70;;
65871;SDS011;52653;50.080;21.992;2024-03-02T08:04:57;51.30;;;31.00;;
65871;SDS011;52653;50.080;21.992;2024-03-02T08:07:30;47.80;;;28.70;;
65871;SDS011;52653;50.080;21.992;2024-03-02T08:10:02;52.30;;;31.00;;
65871;SDS011;52653;50.080;21.992;2024-03-02T08:12:36;47.90;;;29.00;;
65871;SDS011;52653;50.080;21.992;2024-03-02T08:15:08;48.10;;;29.50;;
65871;SDS011;52653;50.080;21.992;2024-03-02T08:17:42;50.30;;;31.10;;
65871;SDS011;52653;50.080;21.992;2024-03-02T08:20:18;48.50;;;29.90;;
65871;SDS011;52653;50.080;21.992;2024-03-02T08:22:50;46.20;;;30.70;;
65871;SDS011;52653;50.080;21.992;2024-03-02T08:25:24;50.30;;;30.10;;
65871;SDS011;52653;50.080;21.992;2024-03-02T08:27:57;50.00;;;29.90;;
65871;SDS011;52653;50.080;21.992;2024-03-02T08:30:30;45.50;;;29.90;;
65871;SDS011;52653;50.080;21.992;2024-03-02T08:33:02;48.40;;;29.90;;
65871;SDS011;52653;50.080;21.992;2024-03-02T08:35:36;48.70;;;30.70;;
65871;SDS011;52653;50.080;21.992;2024-03-02T08:38:08;49.00;;;29.20;;
65871;SDS011;52653;50.080;21.992;2024-03-02T08:40:40;48.50;;;29.80;;
65871;SDS011;52653;50.080;21.992;2024-03-02T08:43:12;48.70;;;29.60;;
65871;SDS011;52653;50.080;21.992;2024-03-02T08:45:45;52.10;;;29.00;;
65871;SDS011;52653;50.080;21.992;2024-03-02T08:48:17;49.90;;;31.80;;
65871;SDS011;52653;50.080;21.992;2024-03-02T08:50:50;49.40;;;31.70;;
65871;SDS011;52653;50.080;21.992;2024-03-02T08:53:22;51.10;;;33.10;;
65871;SDS011;52653;50.080;21.992;2024-03-02T08:55:55;48.70;;;33.20;;
65871;SDS011;52653;50.080;21.992;2024-03-02T08:58:30;48.00;;;31.60;;
65871;SDS011;52653;50.080;21.992;2024-03-02T09:01:03;48.50;;;29.20;;
65871;SDS011;52653;50.080;21.992;2024-03-02T09:03:36;49.10;;;30.80;;
65871;SDS011;52653;50.080;21.992;2024-03-02T09:06:09;49.90;;;32.00;;
65871;SDS011;52653;50.080;21.992;2024-03-02T09:08:41;52.10;;;31.50;;
65871;SDS011;52653;50.080;21.992;2024-03-02T09:11:14;56.50;;;34.10;;
65871;SDS011;52653;50.080;21.992;2024-03-02T09:13:46;51.60;;;32.50;;
65871;SDS011;52653;50.080;21.992;2024-03-02T09:16:18;51.00;;;32.10;;
65871;SDS011;52653;50.080;21.992;2024-03-02T09:18:51;51.20;;;31.70;;
65871;SDS011;52653;50.080;21.992;2024-03-02T09:21:23;50.20;;;31.50;;
65871;SDS011;52653;50.080;21.992;2024-03-02T09:23:55;49.10;;;31.00;;
65871;SDS011;52653;50.080;21.992;2024-03-02T09:26:28;50.80;;;32.00;;
65871;SDS011;52653;50.080;21.992;2024-03-02T09:29:00;47.50;;;30.50;;
65871;SDS011;52653;50.080;21.992;2024-03-02T09:31:38;50.40;;;31.10;;
65871;SDS011;52653;50.080;21.992;2024-03-02T09:34:11;51.40;;;31.40;;
65871;SDS011;52653;50.080;21.992;2024-03-02T09:36:45;50.50;;;31.30;;
65871;SDS011;52653;50.080;21.992;2024-03-02T09:39:18;48.80;;;30.20;;
65871;SDS011;52653;50.080;21.992;2024-03-02T09:41:50;48.80;;;30.00;;
65871;SDS011;52653;50.080;21.992;2024-03-02T09:44:23;51.40;;;33.10;;
65871;SDS011;52653;50.080;21.992;2024-03-02T09:46:56;49.70;;;31.10;;
65871;SDS011;52653;50.080;21.992;2024-03-02T09:49:28;50.10;;;31.40;;
65871;SDS011;52653;50.080;21.992;2024-03-02T09:52:00;51.10;;;32.90;;
65871;SDS011;52653;50.080;21.992;2024-03-02T09:54:33;50.20;;;32.50;;
65871;SDS011;52653;50.080;21.992;2024-03-02T09:57:05;51.20;;;31.80;;
65871;SDS011;52653;50.080;21.992;2024-03-02T09:59:38;48.20;;;31.10;;
65871;SDS011;52653;50.080;21.992;2024-03-02T10:02:12;48.70;;;34.30;;
65871;SDS011;52653;50.080;21.992;2024-03-02T10:04:44;52.40;;;34.30;;
65871;SDS011;52653;50.080;21.992;2024-03-02T10:07:19;50.70;;;33.40;;
65871;SDS011;52653;50.080;21.992;2024-03-02T10:09:51;50.20;;;34.70;;
65871;SDS011;52653;50.080;21.992;2024-03-02T10:12:23;52.20;;;32.10;;
65871;SDS011;52653;50.080;21.992;2024-03-02T10:15:03;54.30;;;34.10;;
65871;SDS011;52653;50.080;21.992;2024-03-02T10:17:39;57.70;;;34.60;;
65871;SDS011;52653;50.080;21.992;2024-03-02T10:20:26;54.10;;;33.80;;
65871;SDS011;52653;50.080;21.992;2024-03-02T10:23:00;51.00;;;33.50;;
65871;SDS011;52653;50.080;21.992;2024-03-02T10:25:42;52.80;;;32.90;;
65871;SDS011;52653;50.080;21.992;2024-03-02T10:28:26;48.30;;;33.00;;
65871;SDS011;52653;50.080;21.992;2024-03-02T10:30:59;50.50;;;32.00;;
65871;SDS011;52653;50.080;21.992;2024-03-02T10:33:31;52.80;;;32.70;;
65871;SDS011;52653;50.080;21.992;2024-03-02T10:36:04;51.20;;;32.10;;
65871;SDS011;52653;50.080;21.992;2024-03-02T10:38:37;48.90;;;31.20;;
65871;SDS011;52653;50.080;21.992;2024-03-02T10:41:12;50.10;;;32.00;;
65871;SDS011;52653;50.080;21.992;2024-03-02T10:43:48;47.90;;;31.90;;
65871;SDS011;52653;50.080;21.992;2024-03-02T10:46:21;47.50;;;31.00;;
65871;SDS011;52653;50.080;21.992;2024-03-02T10:48:58;49.50;;;31.30;;
65871;SDS011;52653;50.080;21.992;2024-03-02T10:51:35;50.40;;;31.90;;
65871;SDS011;52653;50.080;21.992;2024-03-02T10:54:07;52.80;;;33.60;;
65871;SDS011;52653;50.080;21.992;2024-03-02T10:56:40;50.80;;;33.80;;
65871;SDS011;52653;50.080;21.992;2024-03-02T10:59:16;50.20;;;34.10;;
65871;SDS011;52653;50.080;21.992;2024-03-02T11:01:58;50.60;;;34.00;;
65871;SDS011;52653;50.080;21.992;2024-03-02T11:04:34;53.10;;;35.20;;
65871;SDS011;52653;50.080;21.992;2024-03-02T11:07:08;53.50;;;35.90;;
65871;SDS011;52653;50.080;21.992;2024-03-02T11:09:44;63.20;;;39.70;;
65871;SDS011;52653;50.080;21.992;2024-03-02T11:14:53;61.80;;;40.10;;
65871;SDS011;52653;50.080;21.992;2024-03-02T11:17:28;54.50;;;35.90;;
65871;SDS011;52653;50.080;21.992;2024-03-02T11:20:02;49.60;;;35.30;;
65871;SDS011;52653;50.080;21.992;2024-03-02T11:22:38;52.50;;;36.30;;
65871;SDS011;52653;50.080;21.992;2024-03-02T11:25:17;53.40;;;35.00;;
65871;SDS011;52653;50.080;21.992;2024-03-02T11:28:02;51.50;;;34.80;;
65871;SDS011;52653;50.080;21.992;2024-03-02T11:30:52;47.10;;;33.10;;
65871;SDS011;52653;50.080;21.992;2024-03-02T11:33:24;46.90;;;32.40;;
65871;SDS011;52653;50.080;21.992;2024-03-02T11:36:00;50.30;;;33.20;;
65871;SDS011;52653;50.080;21.992;2024-03-02T11:38:37;47.30;;;34.10;;
65871;SDS011;52653;50.080;21.992;2024-03-02T11:41:09;48.20;;;34.30;;
65871;SDS011;52653;50.080;21.992;2024-03-02T11:43:43;51.00;;;34.70;;
65871;SDS011;52653;50.080;21.992;2024-03-02T11:46:16;48.30;;;34.40;;
65871;SDS011;52653;50.080;21.992;2024-03-02T11:48:53;51.10;;;34.80;;
65871;SDS011;52653;50.080;21.992;2024-03-02T11:51:25;50.20;;;33.90;;
65871;SDS011;52653;50.080;21.992;2024-03-02T11:53:58;51.60;;;35.50;;
65871;SDS011;52653;50.080;21.992;2024-03-02T11:56:31;49.60;;;34.40;;
65871;SDS011;52653;50.080;21.992;2024-03-02T11:59:04;46.80;;;32.20;;
65871;SDS011;52653;50.080;21.992;2024-03-02T12:01:37;47.20;;;33.90;;
65871;SDS011;52653;50.080;21.992;2024-03-02T12:04:10;49.20;;;34.30;;
65871;SDS011;52653;50.080;21.992;2024-03-02T12:06:43;51.10;;;36.70;;
65871;SDS011;52653;50.080;21.992;2024-03-02T12:09:16;52.40;;;36.90;;
65871;SDS011;52653;50.080;21.992;2024-03-02T12:11:48;51.30;;;36.20;;
65871;SDS011;52653;50.080;21.992;2024-03-02T12:14:35;52.40;;;34.40;;
65871;SDS011;52653;50.080;21.992;2024-03-02T12:17:07;48.20;;;34.50;;
65871;SDS011;52653;50.080;21.992;2024-03-02T12:19:42;50.40;;;34.20;;
65871;SDS011;52653;50.080;21.992;2024-03-02T12:22:15;54.00;;;36.30;;
65871;SDS011;52653;50.080;21.992;2024-03-02T12:24:47;55.20;;;35.20;;
65871;SDS011;52653;50.080;21.992;2024-03-02T12:27:19;49.80;;;35.60;;
65871;SDS011;52653;50.080;21.992;2024-03-02T12:29:52;51.10;;;35.70;;
65871;SDS011;52653;50.080;21.992;2024-03-02T12:32:24;52.20;;;36.00;;
65871;SDS011;52653;50.080;21.992;2024-03-02T12:34:56;52.70;;;36.10;;
65871;SDS011;52653;50.080;21.992;2024-03-02T12:37:29;55.90;;;36.60;;
65871;SDS011;52653;50.080;21.992;2024-03-02T12:40:01;50.10;;;35.40;;
65871;SDS011;52653;50.080;21.992;2024-03-02T12:42:34;52.10;;;34.50;;
65871;SDS011;52653;50.080;21.992;2024-03-02T12:45:07;55.40;;;34.40;;
65871;SDS011;52653;50.080;21.992;2024-03-02T12:47:40;51.00;;;34.00;;
65871;SDS011;52653;50.080;21.992;2024-03-02T12:50:13;49.90;;;35.10;;
65871;SDS011;52653;50.080;21.992;2024-03-02T12:52:51;54.20;;;33.20;;
65871;SDS011;52653;50.080;21.992;2024-03-02T12:55:25;51.90;;;35.00;;
65871;SDS011;52653;50.080;21.992;2024-03-02T12:57:59;52.70;;;35.90;;
65871;SDS011;52653;50.080;21.992;2024-03-02T13:00:32;52.30;;;34.40;;
65871;SDS011;52653;50.080;21.992;2024-03-02T13:03:06;51.30;;;33.70;;
65871;SDS011;52653;50.080;21.992;2024-03-02T13:05:41;50.00;;;34.60;;
65871;SDS011;52653;50.080;21.992;2024-03-02T13:08:18;53.00;;;36.10;;
65871;SDS011;52653;50.080;21.992;2024-03-02T13:10:50;50.70;;;34.10;;
65871;SDS011;52653;50.080;21.992;2024-03-02T13:13:23;55.40;;;35.70;;
65871;SDS011;52653;50.080;21.992;2024-03-02T13:15:56;46.40;;;33.40;;
65871;SDS011;52653;50.080;21.992;2024-03-02T13:18:29;48.20;;;33.40;;
65871;SDS011;52653;50.080;21.992;2024-03-02T13:21:03;54.80;;;36.20;;
65871;SDS011;52653;50.080;21.992;2024-03-02T13:23:36;50.30;;;35.70;;
65871;SDS011;52653;50.080;21.992;2024-03-02T13:26:08;50.60;;;34.70;;
65871;SDS011;52653;50.080;21.992;2024-03-02T13:28:41;52.80;;;35.20;;
65871;SDS011;52653;50.080;21.992;2024-03-02T13:31:14;55.20;;;37.80;;
65871;SDS011;52653;50.080;21.992;2024-03-02T13:33:48;57.00;;;39.70;;
65871;SDS011;52653;50.080;21.992;2024-03-02T13:36:21;53.00;;;36.10;;
65871;SDS011;52653;50.080;21.992;2024-03-02T13:38:53;52.30;;;35.60;;
65871;SDS011;52653;50.080;21.992;2024-03-02T13:41:27;51.80;;;35.20;;
65871;SDS011;52653;50.080;21.992;2024-03-02T13:43:59;53.40;;;35.40;;
65871;SDS011;52653;50.080;21.992;2024-03-02T13:46:32;50.00;;;35.50;;
65871;SDS011;52653;50.080;21.992;2024-03-02T13:49:04;51.90;;;35.70;;
65871;SDS011;52653;50.080;21.992;2024-03-02T13:51:36;53.60;;;36.00;;
65871;SDS011;52653;50.080;21.992;2024-03-02T13:54:09;54.50;;;35.40;;
65871;SDS011;52653;50.080;21.992;2024-03-02T13:56:41;56.80;;;39.90;;
65871;SDS011;52653;50.080;21.992;2024-03-02T13:59:13;56.90;;;39.40;;
65871;SDS011;52653;50.080;21.992;2024-03-02T14:01:45;56.20;;;37.60;;
65871;SDS011;52653;50.080;21.992;2024-03-02T14:04:18;52.00;;;36.50;;
65871;SDS011;52653;50.080;21.992;2024-03-02T14:06:50;57.70;;;40.80;;
65871;SDS011;52653;50.080;21.992;2024-03-02T14:09:23;59.10;;;41.10;;
65871;SDS011;52653;50.080;21.992;2024-03-02T14:11:56;58.70;;;41.30;;
65871;SDS011;52653;50.080;21.992;2024-03-02T14:14:29;59.30;;;42.50;;
65871;SDS011;52653;50.080;21.992;2024-03-02T14:17:02;62.40;;;44.40;;
65871;SDS011;52653;50.080;21.992;2024-03-02T14:19:36;58.20;;;40.90;;
65871;SDS011;52653;50.080;21.992;2024-03-02T14:22:08;57.00;;;40.40;;
65871;SDS011;52653;50.080;21.992;2024-03-02T14:24:43;55.40;;;39.50;;
65871;SDS011;52653;50.080;21.992;2024-03-02T14:27:15;56.70;;;39.30;;
65871;SDS011;52653;50.080;21.992;2024-03-02T14:30:07;56.00;;;39.40;;
65871;SDS011;52653;50.080;21.992;2024-03-02T14:32:41;55.50;;;39.70;;
65871;SDS011;52653;50.080;21.992;2024-03-02T14:35:14;53.10;;;38.00;;
65871;SDS011;52653;50.080;21.992;2024-03-02T14:37:46;52.40;;;36.50;;
65871;SDS011;52653;50.080;21.992;2024-03-02T14:40:18;53.70;;;38.50;;
65871;SDS011;52653;50.080;21.992;2024-03-02T14:42:51;54.10;;;36.20;;
65871;SDS011;52653;50.080;21.992;2024-03-02T14:45:23;55.70;;;39.50;;
65871;SDS011;52653;50.080;21.992;2024-03-02T14:47:55;55.80;;;38.10;;